Aeroporto :
LOGIN :

Iscrizione | Disclaimer

   EN    FR    IT 

 










Sommario :    VFR   VFR Marginale   IFR   IFR Intensivo   IFR Molto Intensivo
Visibilità : 
Base nubi : 
>= 8 km
>= 3000ft
5 / 8 km
1000 / 3000 ft
1500m / 5 km
500 / 1000 ft
800 / 1500m
200 / 500 ft
< 800m
< 200 ft
Simboli :   Temporali  Nebbia  Neve Forte  Precipitazioni Forti  Vento > 20 kt
SIGMETs :   Varie  Temporali  Ghiacco  Turbolenza  Onda orograficha  Ceneri Vulcaniche







- Altitudine del aeroporto : 286 ft
- Codice IATA : FFD


EGVA - RAF Fairford

ULTIMO METAR :
  • 202124Z AUTO 11005KT 6000 HZ CLR 15/07 A3009 RMK AO2 SLP192

METARs OBSOLETI :
  • 202116Z AUTO 10006KT 1600 R27/0650VP1500 HZ CLR 15/07 A3009 RMK AO2 VIS 1600V8000 SLP192
  • 202056Z AUTO 10004KT 9000 HZ CLR 16/07 A3009 RMK AO2 RAE1959 SLP192 P0000 60000 T01590066 53005
  • 201959Z AUTO 11003KT 6000 HZ CLR 17/08 A3008 RMK AO2 RAE59 SLP189
  • 201939Z AUTO 11004KT 8000 -RA CLR 18/08 A3008 RMK AO2 RAE38RAB39 SLPNO
  • 201926Z AUTO 10005KT 9000 -RA CLR 18/08 A3008 RMK AO2 SLPNO
  • 201920Z AUTO 10005KT 9999 CLR 19/08 A3008 RMK AO2 SLPNO
  • 201909Z AUTO 10004KT 5000 -RA CLR 19/08 A3007 RMK AO2 SLPNO
  • 201904Z AUTO 09004KT 1800 -RA CLR 19/08 A3007 RMK AO2 VIS 1400V6000 SLPNO
  • 201850Z AUTO 09005KT 9000 -RA CLR 20/08 A3007 RMK AO2 RAE1759DZB1759E02RAB07E17DZB17E18RAB18 SLPNO
  • 201844Z AUTO 09004KT 9999 CLR 20/07 A3007 RMK AO2 RAE1759DZB1759E02RAB07E17DZB17E18RAB18 SLPNO
  • 201837Z AUTO 10003KT 9999 CLR 20/07 A3007 RMK AO2 RAE1759DZB1759E02RAB07E17DZB17E18RAB18 SLPNO
  • 201834Z AUTO 10004KT 9000 -RA CLR 20/07 A3007 RMK AO2 RAE1759DZB1759E02RAB07E17DZB17E18RAB18 SLPNO

Previsioni scadute.
Nessun NOTAM noto per questo aeroporto.



MetMap, La meteo Aeronautica in un colpo d'occhio ! - Copyright ORBIFLY Dicembre 2007 - Disclaimer

ORBIFLY MET'MAP TEAM :

Programmazione e sviluppo : Alexandra Zaïnal
Concezione e sviluppo : Baudouin d'Aumeries
Co-Programmazione e sviluppo : Marc-Olivier Méhu
Supporto tecnico e logistico : Manuel Goepfert
Aiuto per la traduzione : Arnaldo La Scala

Contatto : metmap@orbifly.com




FONTI E CREDITI :

   NOAA